createdAt,value
2022-12-14T00:09:22.655Z,-2.72
2022-12-14T00:19:43.986Z,-2.81
2022-12-14T00:30:14.197Z,-2.79
2022-12-14T00:40:35.530Z,-2.78
2022-12-14T00:50:57.023Z,-2.82
2022-12-14T01:01:18.541Z,-2.88
2022-12-14T01:11:39.986Z,-2.95
2022-12-14T01:22:01.417Z,-3.03
2022-12-14T01:32:23.206Z,-3.07
2022-12-14T01:42:44.530Z,-3.18
2022-12-14T01:53:08.554Z,-3.26
2022-12-14T02:03:32.537Z,-3.21
2022-12-14T02:13:54.131Z,-3.29
2022-12-14T02:24:15.440Z,-3.31
2022-12-14T02:34:55.615Z,-3.39
2022-12-14T02:45:39.389Z,-3.38
2022-12-14T02:56:03.665Z,-3.38
2022-12-14T03:06:27.912Z,-3.43
2022-12-14T03:16:50.462Z,-3.46
2022-12-14T03:27:30.205Z,-3.50
2022-12-14T03:37:57.050Z,-3.62
2022-12-14T03:48:30.175Z,-3.66
2022-12-14T03:59:02.513Z,-3.79
2022-12-14T04:09:36.012Z,-3.88
2022-12-14T04:20:19.901Z,-4.00
2022-12-14T04:30:41.545Z,-4.04
2022-12-14T04:41:05.716Z,-4.10
2022-12-14T04:51:31.248Z,-4.17
2022-12-14T05:01:58.887Z,-4.28
2022-12-14T05:12:23.651Z,-4.50
2022-12-14T05:22:45.055Z,-4.48
2022-12-14T05:33:06.579Z,-4.41
2022-12-14T05:43:28.204Z,-4.41
2022-12-14T05:53:49.863Z,-4.46
2022-12-14T06:04:11.928Z,-4.47
2022-12-14T06:14:33.299Z,-4.58
2022-12-14T06:24:54.674Z,-4.64
2022-12-14T06:35:16.087Z,-4.68
2022-12-14T06:45:38.599Z,-4.65
2022-12-14T06:56:07.336Z,-4.58
2022-12-14T07:06:31.479Z,-4.65
2022-12-14T07:16:53.084Z,-4.62
2022-12-14T07:27:17.123Z,-4.64
2022-12-14T07:37:38.521Z,-4.66
2022-12-14T07:47:59.943Z,-4.74
2022-12-14T07:58:21.451Z,-4.74
2022-12-14T08:08:42.913Z,-4.66
2022-12-14T08:19:04.329Z,-4.70
2022-12-14T08:29:25.668Z,-4.66
2022-12-14T08:39:47.777Z,-4.54
2022-12-14T08:50:11.010Z,-4.45
2022-12-14T09:00:32.730Z,-4.42
2022-12-14T09:10:54.134Z,-4.28
2022-12-14T09:21:15.950Z,-4.13
2022-12-14T09:31:37.377Z,-3.95
2022-12-14T09:42:11.442Z,-3.80
2022-12-14T09:52:41.460Z,-3.62
2022-12-14T10:03:21.792Z,-3.50
2022-12-14T10:13:49.662Z,-3.35
2022-12-14T10:24:17.665Z,-3.19
2022-12-14T10:34:40.299Z,-3.08
2022-12-14T10:45:39.912Z,-2.93
2022-12-14T10:55:58.741Z,-2.83
2022-12-14T11:06:20.417Z,-2.70
2022-12-14T11:16:41.951Z,-2.49
2022-12-14T11:27:03.892Z,-2.37
2022-12-14T11:37:26.066Z,-2.15
2022-12-14T11:48:07.354Z,-2.02
2022-12-14T11:58:32.065Z,-1.71
2022-12-14T12:09:03.720Z,-1.60
2022-12-14T12:19:28.349Z,-1.49
2022-12-14T12:29:49.681Z,-1.39
2022-12-14T12:40:21.035Z,-1.17
2022-12-14T12:50:49.774Z,-0.99
2022-12-14T13:01:38.091Z,-0.86
2022-12-14T13:12:00.578Z,-0.83
2022-12-14T13:22:29.602Z,-0.71
2022-12-14T13:32:50.945Z,-0.78
2022-12-14T13:43:35.538Z,-0.85
2022-12-14T13:53:59.245Z,-0.79
2022-12-14T14:04:22.939Z,-0.80
2022-12-14T14:14:47.419Z,-0.80
2022-12-14T14:25:27.526Z,-0.80
2022-12-14T14:35:49.758Z,-0.80
2022-12-14T14:46:13.571Z,-0.84
2022-12-14T14:56:38.420Z,-0.91
2022-12-14T15:07:03.260Z,-0.96
2022-12-14T15:17:25.121Z,-1.11
2022-12-14T15:27:46.979Z,-1.21
2022-12-14T15:38:14.433Z,-1.27
2022-12-14T15:48:36.257Z,-1.36
2022-12-14T15:58:58.791Z,-1.48
2022-12-14T16:09:28.773Z,-1.54
2022-12-14T16:20:16.119Z,-1.63
2022-12-14T16:30:37.565Z,-1.73
2022-12-14T16:41:00.774Z,-1.79
2022-12-14T16:51:51.011Z,-1.89
2022-12-14T17:02:20.595Z,-1.96
2022-12-14T17:12:43.912Z,-2.08
2022-12-14T17:23:07.632Z,-2.16
2022-12-14T17:33:29.635Z,-2.19
2022-12-14T17:43:56.823Z,-2.16
2022-12-14T17:54:19.384Z,-2.19
2022-12-14T18:04:41.030Z,-2.26
2022-12-14T18:15:02.386Z,-2.35
2022-12-14T18:25:32.334Z,-2.42
2022-12-14T18:35:54.654Z,-2.46
2022-12-14T18:46:16.397Z,-2.55
2022-12-14T18:56:40.452Z,-2.67
2022-12-14T19:07:02.077Z,-2.70
2022-12-14T19:17:23.557Z,-2.81
2022-12-14T19:28:25.842Z,-2.83
2022-12-14T19:38:28.282Z,-3.13
2022-12-14T19:48:50.113Z,-3.18
2022-12-14T19:59:11.463Z,-3.25
2022-12-14T20:09:32.935Z,-3.38
2022-12-14T20:19:54.289Z,-3.45
2022-12-14T20:30:15.666Z,-3.44
2022-12-14T20:40:38.951Z,-3.57
2022-12-14T20:51:01.699Z,-3.58
2022-12-14T21:01:23.256Z,-3.60
2022-12-14T21:12:05.002Z,-3.59
2022-12-14T21:22:27.654Z,-3.54
2022-12-14T21:32:49.389Z,-3.52
2022-12-14T21:43:12.732Z,-3.61
2022-12-14T21:53:35.515Z,-3.69
2022-12-14T22:03:57.123Z,-3.69
2022-12-14T22:14:19.946Z,-3.71
2022-12-14T22:24:41.375Z,-3.67
2022-12-14T22:35:02.897Z,-3.55
2022-12-14T22:45:24.277Z,-3.47
2022-12-14T22:55:49.977Z,-3.45
2022-12-14T23:06:15.572Z,-3.47
2022-12-14T23:16:55.890Z,-3.42
2022-12-14T23:27:36.130Z,-3.44
2022-12-14T23:38:21.466Z,-3.43
2022-12-14T23:49:01.466Z,-3.51
2022-12-14T23:59:41.576Z,-3.54
